Time;durP1;ratioP1;P1;durP2;ratioP2;P2;SDS_P1;SDS_P2;PMS_P1;PMS_P2;Temp;Humidity;BMP_temperature;BMP_pressure;BME280_temperature;BME280_humidity;BME280_pressure;Samples;Min_cycle;Max_cycle;Signal;HPM_P1;HPM_P2
2022/03/10 00:01:18;;;;;;;;;;;;;;;1.01;71.04;100188.38;5047777;28;19916;-87
2022/03/10 00:03:44;;;;;;;;;;;;;;;0.84;70.22;100190.44;5047516;28;20361;-87
2022/03/10 00:06:09;;;;;;;;;;;;;;;0.71;69.79;100192.66;5054859;28;19921;-87
2022/03/10 00:08:35;;;;;;;;;;;;;;;0.84;69.80;100191.31;5028678;28;19917;-87
2022/03/10 00:11:00;;;;;;;;;;;;;;;0.76;70.18;100182.41;5048104;28;20011;-87
2022/03/10 00:13:29;;;;;;;;;;;;;;;0.73;69.86;100187.50;5028410;28;19970;-87
2022/03/10 00:15:55;;;;;;;;;;;;;;;0.65;69.99;100183.75;5046386;28;21826;-86
2022/03/10 00:18:20;;;;;;;;;;;;;;;0.66;71.00;100175.13;5029678;28;19909;-86
2022/03/10 00:20:45;;;;;;;;;;;;;;;0.73;70.62;100184.00;5045222;28;19917;-86
2022/03/10 00:23:11;;;;;;;;;;;;;;;0.70;70.15;100188.28;5046484;28;19916;-87
2022/03/10 00:25:37;;;;;;;;;;;;;;;0.84;70.29;100191.31;5047262;28;20357;-86
2022/03/10 00:28:02;;;;;;;;;;;;;;;0.67;71.65;100185.56;5047766;28;20353;-87
2022/03/10 00:30:27;;;;;;;;;;;;;;;0.96;71.33;100189.94;5047047;28;19916;-87
2022/03/10 00:32:53;;;;;;;;;;;;;;;1.05;71.00;100187.63;5047054;28;19982;-86
2022/03/10 00:35:19;;;;;;;;;;;;;;;0.98;70.87;100186.56;5046624;28;19924;-88
2022/03/10 00:37:46;;;;;;;;;;;;;;;0.94;70.62;100189.00;5047202;28;19916;-87
2022/03/10 00:40:12;;;;;;;;;;;;;;;1.07;70.02;100178.19;5047187;28;19973;-87
2022/03/10 00:42:38;;;;;;;;;;;;;;;1.00;69.58;100178.81;5046793;28;20004;-85
2022/03/10 00:45:04;;;;;;;;;;;;;;;1.11;69.21;100180.00;5047092;28;20367;-86
2022/03/10 00:47:30;;;;;;;;;;;;;;;0.93;69.30;100175.16;5061204;28;19979;-87
2022/03/10 00:49:56;;;;;;;;;;;;;;;0.99;69.12;100182.22;5046845;28;19964;-87
2022/03/10 00:52:21;;;;;;;;;;;;;;;0.99;69.68;100183.13;5047378;28;20443;-88
2022/03/10 00:54:46;;;;;;;;;;;;;;;0.96;69.34;100183.03;5046602;28;19925;-86
2022/03/10 00:57:11;;;;;;;;;;;;;;;1.09;68.32;100189.50;5046835;28;19924;-87
2022/03/10 00:59:37;;;;;;;;;;;;;;;1.07;68.74;100181.66;5046829;28;19931;-86
2022/03/10 01:02:02;;;;;;;;;;;;;;;1.20;68.31;100171.63;5046879;28;19919;-87
2022/03/10 01:04:27;;;;;;;;;;;;;;;1.12;67.84;100178.31;5046475;28;19916;-86
2022/03/10 01:06:53;;;;;;;;;;;;;;;1.09;68.09;100178.22;5028030;28;19967;-86
2022/03/10 01:09:18;;;;;;;;;;;;;;;1.05;67.87;100172.03;5047004;28;19959;-86
2022/03/10 01:11:44;;;;;;;;;;;;;;;1.00;67.29;100178.81;5047269;28;20711;-86
2022/03/10 01:14:10;;;;;;;;;;;;;;;1.12;67.63;100175.72;5046461;28;19947;-86
2022/03/10 01:16:35;;;;;;;;;;;;;;;1.27;67.29;100170.09;5027704;28;19920;-86
2022/03/10 01:19:00;;;;;;;;;;;;;;;0.86;67.12;100176.66;5028664;28;19924;-87
2022/03/10 01:21:26;;;;;;;;;;;;;;;0.86;65.93;100173.19;5045690;28;19916;-86
2022/03/10 01:23:51;;;;;;;;;;;;;;;0.93;66.65;100171.66;5046639;28;20307;-87
2022/03/10 01:26:17;;;;;;;;;;;;;;;0.94;66.19;100173.44;5045439;28;19920;-87
2022/03/10 01:28:42;;;;;;;;;;;;;;;1.00;65.75;100174.47;5046032;28;19920;-86
2022/03/10 01:31:07;;;;;;;;;;;;;;;0.98;64.82;100177.88;5046422;28;19955;-86
2022/03/10 01:33:34;;;;;;;;;;;;;;;1.09;64.97;100176.50;5061823;28;19917;-86
2022/03/10 01:36:00;;;;;;;;;;;;;;;1.32;64.64;100174.59;5032392;28;19920;-86
2022/03/10 01:38:25;;;;;;;;;;;;;;;1.23;64.54;100171.72;5049297;28;20406;-85
2022/03/10 01:40:51;;;;;;;;;;;;;;;1.42;63.58;100171.44;5050057;28;19964;-86
2022/03/10 01:43:16;;;;;;;;;;;;;;;1.26;62.50;100166.63;5049707;28;19927;-87
2022/03/10 01:45:41;;;;;;;;;;;;;;;0.94;61.96;100173.44;5031992;28;19967;-86
2022/03/10 01:48:07;;;;;;;;;;;;;;;1.10;60.02;100162.69;5048963;28;20015;-86
2022/03/10 01:50:33;;;;;;;;;;;;;;;0.95;60.81;100168.28;5048919;28;19959;-85
2022/03/10 01:52:59;;;;;;;;;;;;;;;1.02;60.20;100166.75;5049835;28;19916;-86
2022/03/10 01:55:25;;;;;;;;;;;;;;;0.77;59.53;100165.09;5050042;28;20011;-86
2022/03/10 01:57:50;;;;;;;;;;;;;;;0.85;59.22;100156.72;5050339;28;20011;-86
2022/03/10 02:00:16;;;;;;;;;;;;;;;0.82;59.50;100159.22;5050028;28;19913;-86
2022/03/10 02:02:41;;;;;;;;;;;;;;;0.99;59.59;100164.94;5030334;28;19921;-86
2022/03/10 02:05:06;;;;;;;;;;;;;;;1.38;59.19;100160.91;5049252;28;19924;-86
2022/03/10 02:10:19;;;;;;;;;;;;;;;1.10;59.38;100161.78;5049821;28;20012;-87
2022/03/10 02:12:48;;;;;;;;;;;;;;;1.18;59.46;100168.13;5048863;28;19912;-87
2022/03/10 02:18:04;;;;;;;;;;;;;;;0.85;59.25;100172.31;5027186;28;20046;-87
2022/03/10 02:20:30;;;;;;;;;;;;;;;0.97;58.74;100168.31;5048544;28;20027;-87
2022/03/10 02:22:55;;;;;;;;;;;;;;;0.99;58.69;100170.16;5031202;28;19999;-88
2022/03/10 02:25:24;;;;;;;;;;;;;;;1.03;59.40;100168.50;5048817;28;19916;-87
2022/03/10 02:27:50;;;;;;;;;;;;;;;1.13;59.76;100173.16;5039976;28;20414;-87
2022/03/10 02:30:16;;;;;;;;;;;;;;;1.04;59.60;100175.47;5029489;28;20016;-89
2022/03/10 02:32:42;;;;;;;;;;;;;;;0.94;60.48;100168.22;5027978;28;20665;-87
2022/03/10 02:35:07;;;;;;;;;;;;;;;1.07;61.01;100170.38;5046420;28;19935;-85
2022/03/10 02:37:33;;;;;;;;;;;;;;;1.10;61.27;100173.06;5049351;28;20463;-86
2022/03/10 02:39:58;;;;;;;;;;;;;;;0.96;62.25;100172.66;5049183;28;19927;-86
2022/03/10 02:42:23;;;;;;;;;;;;;;;0.90;61.61;100169.84;5048783;28;20053;-86
2022/03/10 02:44:49;;;;;;;;;;;;;;;0.99;60.80;100174.44;5048230;28;20015;-85
2022/03/10 02:47:15;;;;;;;;;;;;;;;0.96;60.85;100172.66;5049002;28;19924;-85
2022/03/10 02:49:41;;;;;;;;;;;;;;;1.00;59.80;100173.63;5064489;28;19919;-86
2022/03/10 02:52:06;;;;;;;;;;;;;;;0.78;59.65;100175.53;5048877;28;19913;-86
2022/03/10 02:54:32;;;;;;;;;;;;;;;0.82;61.44;100182.59;5048283;28;19927;-86
2022/03/10 02:56:57;;;;;;;;;;;;;;;0.86;62.26;100184.44;5048189;28;19923;-86
2022/03/10 02:59:23;;;;;;;;;;;;;;;0.99;62.72;100182.22;5030990;28;19920;-86
2022/03/10 03:01:49;;;;;;;;;;;;;;;0.98;62.87;100186.56;5049246;28;19917;-86
2022/03/10 03:04:15;;;;;;;;;;;;;;;0.92;63.27;100182.91;5030097;28;20675;-87
2022/03/10 03:06:40;;;;;;;;;;;;;;;1.18;62.73;100194.09;5048008;28;19978;-87
2022/03/10 03:09:05;;;;;;;;;;;;;;;1.31;62.79;100187.56;5048927;28;20015;-87
2022/03/10 03:11:31;;;;;;;;;;;;;;;1.16;62.23;100190.56;5048569;28;19999;-86
2022/03/10 03:13:56;;;;;;;;;;;;;;;1.14;62.18;100187.03;5047714;28;19927;-86
2022/03/10 03:16:22;;;;;;;;;;;;;;;1.07;62.59;100192.03;5047803;28;19916;-86
2022/03/10 03:18:47;;;;;;;;;;;;;;;1.11;62.00;100190.41;5032178;28;19919;-85
2022/03/10 03:21:13;;;;;;;;;;;;;;;0.99;62.49;100185.75;5047995;28;19928;-85
2022/03/10 03:23:38;;;;;;;;;;;;;;;0.99;62.08;100193.53;5048359;28;19923;-85
2022/03/10 03:26:04;;;;;;;;;;;;;;;1.11;62.55;100194.75;5046963;28;19943;-85
2022/03/10 03:28:29;;;;;;;;;;;;;;;1.12;61.55;100196.50;5048288;28;19912;-85
2022/03/10 03:30:54;;;;;;;;;;;;;;;1.11;62.04;100205.13;5047794;28;20424;-84
2022/03/10 03:33:19;;;;;;;;;;;;;;;1.11;61.03;100199.94;5048011;28;19924;-85
2022/03/10 03:35:45;;;;;;;;;;;;;;;0.57;59.41;100193.00;5048066;28;19927;-86
2022/03/10 03:38:11;;;;;;;;;;;;;;;0.60;59.78;100199.19;5047117;28;19935;-85
2022/03/10 03:40:37;;;;;;;;;;;;;;;0.42;59.46;100191.66;5047302;28;19924;-85
2022/03/10 03:43:02;;;;;;;;;;;;;;;0.45;59.82;100196.97;5047462;28;20386;-84
2022/03/10 03:45:27;;;;;;;;;;;;;;;0.46;60.40;100203.91;5028737;28;19920;-84
2022/03/10 03:47:53;;;;;;;;;;;;;;;0.58;60.06;100200.84;5048007;28;19969;-85
2022/03/10 03:50:18;;;;;;;;;;;;;;;0.34;59.52;100207.00;5046771;28;19970;-85
2022/03/10 03:52:44;;;;;;;;;;;;;;;0.18;58.96;100202.94;5047509;28;19928;-84
2022/03/10 03:55:09;;;;;;;;;;;;;;;0.38;58.28;100207.97;5046934;28;20417;-85
2022/03/10 03:57:34;;;;;;;;;;;;;;;0.51;59.65;100207.56;5047328;28;20367;-85
2022/03/10 04:00:01;;;;;;;;;;;;;;;0.63;59.19;100213.97;5047001;28;19990;-85
2022/03/10 04:02:26;;;;;;;;;;;;;;;0.61;59.52;100221.72;5017134;28;19986;-85
2022/03/10 04:04:52;;;;;;;;;;;;;;;0.45;59.70;100228.13;5047646;28;19921;-88
2022/03/10 04:07:18;;;;;;;;;;;;;;;0.56;59.67;100231.09;5042500;28;19921;-87
2022/03/10 04:09:43;;;;;;;;;;;;;;;0.76;59.87;100228.25;5047855;28;19924;-89
2022/03/10 04:12:08;;;;;;;;;;;;;;;0.85;60.22;100225.94;5047224;28;19917;-90
2022/03/10 04:14:34;;;;;;;;;;;;;;;0.87;60.25;100216.53;5029638;28;19912;-89
2022/03/10 04:16:59;;;;;;;;;;;;;;;0.91;59.83;100227.88;5029661;28;20011;-88
2022/03/10 04:19:24;;;;;;;;;;;;;;;1.00;59.18;100221.25;5029662;28;19909;-92
2022/03/10 04:21:50;;;;;;;;;;;;;;;1.00;59.14;100225.56;5029213;28;19917;-90
2022/03/10 04:24:16;;;;;;;;;;;;;;;1.02;59.57;100232.59;5029012;28;19924;-89
2022/03/10 04:26:42;;;;;;;;;;;;;;;0.98;59.49;100241.13;5029458;28;20368;-90
2022/03/10 04:29:07;;;;;;;;;;;;;;;0.91;59.84;100238.28;5047464;28;19967;-88
2022/03/10 04:31:33;;;;;;;;;;;;;;;0.93;58.70;100246.97;5047277;28;19916;-89
2022/03/10 04:33:58;;;;;;;;;;;;;;;0.73;60.69;100249.81;5046949;28;19962;-88
2022/03/10 04:36:23;;;;;;;;;;;;;;;0.55;60.68;100249.19;5029028;28;19927;-91
2022/03/10 04:38:50;;;;;;;;;;;;;;;0.22;61.12;100263.66;5029499;28;20390;-90
2022/03/10 04:41:16;;;;;;;;;;;;;;;-0.09;62.39;100269.44;5029051;28;19970;-89
2022/03/10 04:43:41;;;;;;;;;;;;;;;-0.32;60.70;100266.84;5030550;28;19916;-92
2022/03/10 04:46:08;;;;;;;;;;;;;;;-0.19;60.74;100274.28;5026165;28;20371;-90
2022/03/10 04:48:33;;;;;;;;;;;;;;;-0.33;62.00;100277.16;5025587;28;19913;-91
2022/03/10 04:50:58;;;;;;;;;;;;;;;-0.20;61.82;100285.47;5017897;28;19928;-92
2022/03/10 04:53:24;;;;;;;;;;;;;;;0.01;62.18;100283.63;5047993;28;19921;-90
2022/03/10 04:55:49;;;;;;;;;;;;;;;0.03;62.16;100292.34;5015340;28;19916;-92
2022/03/10 04:58:15;;;;;;;;;;;;;;;0.10;62.53;100295.22;5009830;28;19917;-87
2022/03/10 05:00:40;;;;;;;;;;;;;;;0.39;61.55;100291.91;5013410;28;20373;-91
2022/03/10 05:03:05;;;;;;;;;;;;;;;0.27;61.36;100293.22;5026244;28;20387;-91
2022/03/10 05:05:31;;;;;;;;;;;;;;;0.60;61.61;100295.25;5021858;28;20292;-93
2022/03/10 05:07:56;;;;;;;;;;;;;;;0.64;61.94;100296.25;5030288;28;19917;-93
2022/03/10 05:10:22;;;;;;;;;;;;;;;0.62;61.59;100297.91;5029577;28;20421;-93
2022/03/10 05:12:49;;;;;;;;;;;;;;;0.35;61.19;100299.56;5028326;28;19928;-95
2022/03/10 05:15:19;;;;;;;;;;;;;;;0.39;61.62;100303.19;5018741;28;19921;-92
2022/03/10 05:17:44;;;;;;;;;;;;;;;0.34;61.81;100309.91;5030501;28;20533;-92
2022/03/10 05:20:10;;;;;;;;;;;;;;;0.43;61.19;100307.63;5029403;28;19917;-91
2022/03/10 05:22:45;;;;;;;;;;;;;;;0.42;59.93;100320.56;5031819;28;19917;-96
2022/03/10 05:25:10;;;;;;;;;;;;;;;0.29;60.94;100317.53;5049522;28;19921;-95
2022/03/10 05:27:36;;;;;;;;;;;;;;;0.33;61.18;100322.00;5032545;28;19924;-95
2022/03/10 05:30:08;;;;;;;;;;;;;;;0.26;61.06;100324.31;5031283;28;19932;-92
2022/03/10 05:32:53;;;;;;;;;;;;;;;0.41;61.46;100324.88;5051829;28;19917;-94
2022/03/10 05:37:56;;;;;;;;;;;;;;;0.37;62.01;100332.50;5576867;23;19925;-93
2022/03/10 05:40:22;;;;;;;;;;;;;;;0.58;61.92;100332.41;5006543;28;19973;-93
2022/03/10 05:42:51;;;;;;;;;;;;;;;0.51;62.32;100332.19;5004276;28;20391;-89
2022/03/10 05:45:20;;;;;;;;;;;;;;;0.78;62.10;100340.88;5001839;28;19940;-95
2022/03/10 05:47:50;;;;;;;;;;;;;;;1.00;61.75;100334.69;5015466;28;19926;-96
2022/03/10 06:42:44;;;;;;;;;;;;;;;4.47;41.24;100279.56;4492017;28;22236;-88
2022/03/10 06:45:09;;;;;;;;;;;;;;;4.62;43.47;100360.00;4990687;28;19944;-94
2022/03/10 06:47:34;;;;;;;;;;;;;;;5.03;44.34;100361.63;4991370;28;20364;-94
2022/03/10 06:50:01;;;;;;;;;;;;;;;4.62;41.78;100356.53;4990942;28;19918;-94
2022/03/10 06:52:30;;;;;;;;;;;;;;;4.09;41.68;100360.66;4992833;28;19921;-90
2022/03/10 06:54:58;;;;;;;;;;;;;;;4.41;39.82;100360.44;4991313;28;19914;-92
2022/03/10 06:57:24;;;;;;;;;;;;;;;4.84;40.81;100356.06;4990847;28;19925;-95
2022/03/10 06:59:49;;;;;;;;;;;;;;;4.93;39.77;100351.88;4989129;28;19924;-93
2022/03/10 07:02:17;;;;;;;;;;;;;;;5.08;37.76;100365.25;4991015;28;19951;-92
2022/03/10 07:04:42;;;;;;;;;;;;;;;4.64;36.93;100363.53;4987509;28;19917;-93
2022/03/10 07:07:08;;;;;;;;;;;;;;;4.94;37.10;100366.69;4970885;28;20418;-92
2022/03/10 07:09:34;;;;;;;;;;;;;;;4.82;36.53;100360.41;4973240;28;19918;-90
2022/03/10 07:12:00;;;;;;;;;;;;;;;3.59;39.13;100369.06;4972097;28;19914;-94
2022/03/10 07:14:26;;;;;;;;;;;;;;;3.14;41.15;100379.25;4984399;28;20344;-92
2022/03/10 07:16:52;;;;;;;;;;;;;;;3.13;38.74;100373.13;4971033;28;19949;-93
2022/03/10 07:19:17;;;;;;;;;;;;;;;3.68;39.97;100376.25;4969184;28;19956;-90
2022/03/10 07:21:54;;;;;;;;;;;;;;;4.41;38.13;100375.25;4973467;28;19964;-94
2022/03/10 07:24:21;;;;;;;;;;;;;;;3.62;35.79;100380.44;4985027;28;20043;-89
2022/03/10 07:26:47;;;;;;;;;;;;;;;2.87;37.50;100382.88;4985207;28;20017;-88
2022/03/10 07:29:12;;;;;;;;;;;;;;;3.68;40.71;100371.03;4990558;28;20441;-87
2022/03/10 07:31:37;;;;;;;;;;;;;;;4.50;40.01;100369.34;4986968;28;20400;-89
2022/03/10 07:34:03;;;;;;;;;;;;;;;3.38;38.34;100374.66;4988392;28;19918;-88
2022/03/10 07:36:28;;;;;;;;;;;;;;;3.83;39.88;100369.63;4985027;28;19917;-88
2022/03/10 07:38:54;;;;;;;;;;;;;;;3.18;41.63;100360.22;4986799;28;19929;-89
2022/03/10 07:41:19;;;;;;;;;;;;;;;3.78;40.59;100372.13;4986812;28;19920;-87
2022/03/10 07:43:46;;;;;;;;;;;;;;;4.31;42.24;100363.75;5008149;28;19917;-91
2022/03/10 07:46:12;;;;;;;;;;;;;;;4.49;40.63;100371.06;5027325;28;19921;-90
2022/03/10 07:48:37;;;;;;;;;;;;;;;4.83;39.90;100364.78;5009684;28;19920;-89
2022/03/10 07:51:03;;;;;;;;;;;;;;;4.63;41.33;100368.72;5026797;28;19921;-88
2022/03/10 07:53:28;;;;;;;;;;;;;;;4.47;48.95;100360.56;5026231;28;19913;-88
2022/03/10 07:55:56;;;;;;;;;;;;;;;3.68;50.54;100373.63;5010650;28;20326;-87
2022/03/10 07:58:25;;;;;;;;;;;;;;;3.07;54.38;100353.84;5027187;28;19960;-88
2022/03/10 08:00:54;;;;;;;;;;;;;;;2.99;54.73;100358.88;5009302;28;20734;-87
2022/03/10 08:03:19;;;;;;;;;;;;;;;3.46;55.11;100353.09;5028281;28;19920;-90
2022/03/10 08:05:46;;;;;;;;;;;;;;;3.85;54.81;100357.50;5007942;28;20482;-88
2022/03/10 08:08:13;;;;;;;;;;;;;;;3.70;49.38;100352.81;5007147;28;20315;-88
2022/03/10 08:10:42;;;;;;;;;;;;;;;3.62;49.02;100363.06;5009115;28;19925;-89
2022/03/10 08:13:07;;;;;;;;;;;;;;;3.37;50.21;100358.97;5006878;28;20014;-89
2022/03/10 08:15:32;;;;;;;;;;;;;;;3.85;50.47;100360.13;5020179;28;19961;-88
2022/03/10 08:17:57;;;;;;;;;;;;;;;3.74;48.54;100359.88;5027001;28;19928;-91
2022/03/10 08:20:26;;;;;;;;;;;;;;;2.82;48.85;100363.63;5011098;28;19921;-91
2022/03/10 08:22:51;;;;;;;;;;;;;;;2.85;49.24;100364.59;5043353;28;19917;-91
2022/03/10 08:25:18;;;;;;;;;;;;;;;3.05;47.40;100362.50;5011833;28;20304;-94
2022/03/10 08:27:45;;;;;;;;;;;;;;;3.31;48.09;100366.66;5008087;28;19925;-89
2022/03/10 08:30:13;;;;;;;;;;;;;;;3.10;43.48;100359.16;5027307;28;19920;-90
2022/03/10 08:32:39;;;;;;;;;;;;;;;3.08;41.99;100369.53;5005028;28;19913;-91
2022/03/10 08:35:05;;;;;;;;;;;;;;;2.66;44.71;100371.03;5023625;28;19925;-91
2022/03/10 08:37:31;;;;;;;;;;;;;;;2.96;44.98;100366.59;5029293;28;19921;-91
2022/03/10 08:39:56;;;;;;;;;;;;;;;3.18;45.64;100363.72;5028832;28;19919;-90
2022/03/10 08:42:21;;;;;;;;;;;;;;;3.30;46.48;100357.94;5028140;28;20375;-90
2022/03/10 08:44:47;;;;;;;;;;;;;;;3.40;45.96;100359.06;5044331;28;19917;-93
2022/03/10 08:47:13;;;;;;;;;;;;;;;3.20;48.85;100358.56;5013104;28;19925;-90
2022/03/10 08:49:38;;;;;;;;;;;;;;;3.05;48.50;100374.66;5005434;28;19925;-89
2022/03/10 08:52:04;;;;;;;;;;;;;;;2.92;48.56;100365.66;5006127;28;19925;-88
2022/03/10 08:54:30;;;;;;;;;;;;;;;2.74;48.86;100362.56;5006990;28;19940;-88
2022/03/10 08:56:55;;;;;;;;;;;;;;;2.50;46.76;100361.00;5008687;28;20363;-89
2022/03/10 08:59:20;;;;;;;;;;;;;;;2.14;47.99;100366.91;5009973;28;20369;-88
2022/03/10 09:01:46;;;;;;;;;;;;;;;2.52;48.26;100364.56;5007416;28;20280;-89
2022/03/10 09:04:11;;;;;;;;;;;;;;;3.02;50.06;100358.94;5008081;28;19913;-88
2022/03/10 09:06:36;;;;;;;;;;;;;;;3.48;48.25;100354.91;5005126;28;19917;-89
2022/03/10 09:09:03;;;;;;;;;;;;;;;3.46;48.53;100347.88;5008312;28;19921;-88
2022/03/10 09:11:28;;;;;;;;;;;;;;;2.78;47.90;100373.09;5005817;28;20327;-88
2022/03/10 09:13:54;;;;;;;;;;;;;;;2.83;48.83;100370.63;4999974;28;19921;-87
2022/03/10 09:16:20;;;;;;;;;;;;;;;2.99;47.79;100366.69;5005541;28;20012;-88
2022/03/10 09:18:45;;;;;;;;;;;;;;;3.23;48.13;100361.25;5025200;28;20472;-87
2022/03/10 09:21:13;;;;;;;;;;;;;;;3.53;46.62;100365.44;5007314;28;19917;-88
2022/03/10 09:23:39;;;;;;;;;;;;;;;3.60;44.77;100367.38;5006914;28;19913;-87
2022/03/10 09:26:04;;;;;;;;;;;;;;;3.31;45.64;100362.31;5007099;28;19921;-88
2022/03/10 09:28:30;;;;;;;;;;;;;;;2.74;45.96;100367.75;5006100;28;20451;-86
2022/03/10 09:30:55;;;;;;;;;;;;;;;2.99;48.88;100366.69;5006670;28;19921;-87
2022/03/10 09:33:20;;;;;;;;;;;;;;;3.05;45.74;100362.50;4992356;28;19929;-87
2022/03/10 09:35:46;;;;;;;;;;;;;;;3.38;45.59;100366.84;5005282;28;19922;-87
2022/03/10 09:38:12;;;;;;;;;;;;;;;3.18;44.49;100366.34;5005435;28;20759;-87
2022/03/10 09:40:37;;;;;;;;;;;;;;;2.82;45.96;100374.94;5004995;28;19928;-87
2022/03/10 09:43:03;;;;;;;;;;;;;;;2.90;45.08;100372.53;5009137;28;20012;-87
2022/03/10 09:45:30;;;;;;;;;;;;;;;3.43;43.55;100363.44;5023998;28;19925;-88
2022/03/10 09:47:55;;;;;;;;;;;;;;;3.83;44.72;100362.69;5009277;28;19928;-87
2022/03/10 09:50:21;;;;;;;;;;;;;;;4.44;45.03;100363.13;5028081;28;19921;-88
2022/03/10 09:52:46;;;;;;;;;;;;;;;4.78;43.00;100358.56;5019323;28;19917;-88
2022/03/10 09:55:13;;;;;;;;;;;;;;;4.95;42.88;100355.41;5031593;28;20705;-88
2022/03/10 09:57:40;;;;;;;;;;;;;;;4.38;41.68;100364.72;5030394;28;20016;-83
2022/03/10 10:00:06;;;;;;;;;;;;;;;3.70;43.44;100361.50;5025152;28;20353;-87
2022/03/10 10:02:31;;;;;;;;;;;;;;;3.62;44.44;100364.78;5029581;28;19917;-87
2022/03/10 10:04:57;;;;;;;;;;;;;;;2.94;44.50;100358.75;5028269;28;20007;-87
2022/03/10 10:07:25;;;;;;;;;;;;;;;2.54;43.95;100370.69;5029503;28;19959;-87
2022/03/10 10:09:54;;;;;;;;;;;;;;;2.79;44.33;100374.84;5012732;28;20372;-88
2022/03/10 10:12:22;;;;;;;;;;;;;;;3.48;41.76;100370.56;5011909;28;19921;-88
2022/03/10 10:14:48;;;;;;;;;;;;;;;3.24;43.70;100368.19;5013055;28;19921;-89
2022/03/10 10:17:13;;;;;;;;;;;;;;;3.46;43.08;100369.63;5011536;28;19928;-89
2022/03/10 10:19:40;;;;;;;;;;;;;;;4.16;43.60;100364.28;5023979;28;19967;-86
2022/03/10 10:22:13;;;;;;;;;;;;;;;4.47;41.49;100362.31;5027210;28;19920;-88
2022/03/10 10:24:39;;;;;;;;;;;;;;;4.29;42.84;100358.47;5029361;28;19917;-89
2022/03/10 10:27:25;;;;;;;;;;;;;;;4.61;45.46;100354.75;5027990;28;19932;-89
2022/03/10 10:29:52;;;;;;;;;;;;;;;4.90;39.16;100357.06;5028940;28;19913;-90
2022/03/10 10:32:25;;;;;;;;;;;;;;;4.53;36.78;100359.81;5008504;28;19917;-90
2022/03/10 10:35:20;;;;;;;;;;;;;;;4.51;40.41;100363.25;5003790;28;20398;-89
2022/03/10 10:37:48;;;;;;;;;;;;;;;4.22;40.65;100355.72;5007159;28;19915;-89
2022/03/10 10:40:19;;;;;;;;;;;;;;;3.96;42.44;100362.97;5028616;28;19920;-88
2022/03/10 10:42:44;;;;;;;;;;;;;;;4.02;43.81;100358.75;5025044;28;20405;-89
2022/03/10 10:45:30;;;;;;;;;;;;;;;3.69;44.40;100364.97;5029272;28;20000;-88
2022/03/10 10:47:58;;;;;;;;;;;;;;;3.04;45.31;100367.69;5027616;28;20287;-89
2022/03/10 10:50:24;;;;;;;;;;;;;;;2.66;45.76;100368.44;5046050;28;19923;-88
2022/03/10 10:52:49;;;;;;;;;;;;;;;3.17;45.42;100367.16;5029171;28;20298;-86
2022/03/10 10:55:14;;;;;;;;;;;;;;;3.52;45.94;100369.78;5028391;28;19960;-87
2022/03/10 10:57:40;;;;;;;;;;;;;;;3.75;49.24;100369.44;5029127;28;19913;-86
2022/03/10 11:00:10;;;;;;;;;;;;;;;3.62;49.96;100356.97;5029168;28;19909;-87
2022/03/10 11:02:38;;;;;;;;;;;;;;;3.00;49.62;100358.91;5029116;28;19913;-86
2022/03/10 11:05:04;;;;;;;;;;;;;;;3.08;48.52;100358.25;5027205;28;19931;-85
2022/03/10 11:07:31;;;;;;;;;;;;;;;3.34;47.55;100359.78;5026961;28;19921;-86
2022/03/10 11:09:56;;;;;;;;;;;;;;;3.51;46.76;100349.75;5027494;28;19963;-83
2022/03/10 11:12:22;;;;;;;;;;;;;;;3.89;46.82;100357.59;5028375;28;20360;-84
2022/03/10 11:14:48;;;;;;;;;;;;;;;4.16;46.18;100359.06;5029264;28;20355;-84
2022/03/10 11:17:14;;;;;;;;;;;;;;;4.23;48.59;100336.56;5026358;28;19920;-84
2022/03/10 11:19:44;;;;;;;;;;;;;;;4.64;47.72;100336.50;5027792;28;19929;-86
2022/03/10 11:22:16;;;;;;;;;;;;;;;5.30;44.77;100336.81;5026728;28;19921;-87
2022/03/10 11:24:44;;;;;;;;;;;;;;;5.70;45.00;100340.97;5025007;28;19928;-84
2022/03/10 11:27:14;;;;;;;;;;;;;;;6.01;43.95;100337.91;5025550;28;19917;-85
2022/03/10 11:29:41;;;;;;;;;;;;;;;6.24;43.14;100326.03;5027660;28;19928;-84
2022/03/10 11:32:09;;;;;;;;;;;;;;;5.96;46.34;100331.72;5028481;28;19919;-84
2022/03/10 11:34:46;;;;;;;;;;;;;;;5.77;45.53;100346.28;5027747;28;19923;-85
2022/03/10 11:37:12;;;;;;;;;;;;;;;5.21;45.38;100350.63;5028375;28;19917;-86
2022/03/10 11:39:54;;;;;;;;;;;;;;;4.44;41.99;100357.03;5027873;28;19917;-85
2022/03/10 11:42:30;;;;;;;;;;;;;;;4.29;42.82;100360.19;5027939;28;19992;-86
2022/03/10 11:45:05;;;;;;;;;;;;;;;3.87;47.74;100361.88;5027676;28;20020;-86
2022/03/10 11:47:30;;;;;;;;;;;;;;;3.56;48.88;100365.53;5028602;28;19935;-87
2022/03/10 11:49:56;;;;;;;;;;;;;;;3.29;50.59;100363.09;5028636;28;20375;-86
2022/03/10 11:52:28;;;;;;;;;;;;;;;2.84;51.20;100373.28;5028174;28;20004;-89
2022/03/10 11:55:05;;;;;;;;;;;;;;;2.61;51.63;100362.22;5028344;28;19916;-87
2022/03/10 11:57:40;;;;;;;;;;;;;;;2.76;51.05;100369.56;5028257;28;19917;-88
2022/03/10 12:00:06;;;;;;;;;;;;;;;3.27;53.72;100370.00;5011613;28;19924;-89
2022/03/10 12:02:39;;;;;;;;;;;;;;;3.59;49.85;100365.59;5028286;28;19916;-89
2022/03/10 12:05:05;;;;;;;;;;;;;;;3.74;49.00;100367.69;5011045;28;19921;-87
2022/03/10 12:07:31;;;;;;;;;;;;;;;3.37;49.92;100370.28;5028263;28;19978;-90
2022/03/10 12:10:03;;;;;;;;;;;;;;;3.58;51.76;100379.47;5011945;28;19917;-89
2022/03/10 12:12:28;;;;;;;;;;;;;;;3.86;51.41;100372.28;5028655;28;19917;-90
2022/03/10 12:14:57;;;;;;;;;;;;;;;3.82;51.25;100373.09;5028262;28;20422;-89
2022/03/10 12:17:41;;;;;;;;;;;;;;;4.02;52.90;100382.25;5044170;28;20366;-89
2022/03/10 12:20:13;;;;;;;;;;;;;;;4.18;51.38;100373.03;5043685;28;19920;-88
2022/03/10 12:22:39;;;;;;;;;;;;;;;4.22;52.32;100376.59;5028124;28;19917;-88
2022/03/10 12:25:20;;;;;;;;;;;;;;;4.28;52.46;100369.75;5027483;28;19988;-90
2022/03/10 12:27:49;;;;;;;;;;;;;;;4.65;50.39;100364.44;5028007;28;19972;-90
2022/03/10 12:30:18;;;;;;;;;;;;;;;4.36;50.30;100371.66;5028251;28;19917;-90
2022/03/10 12:32:45;;;;;;;;;;;;;;;4.28;48.45;100385.44;5028485;28;20132;-88
2022/03/10 12:35:11;;;;;;;;;;;;;;;4.43;48.37;100373.53;5028789;28;19917;-89
2022/03/10 12:37:37;;;;;;;;;;;;;;;4.50;50.14;100377.19;5027265;28;19975;-88
2022/03/10 12:40:04;;;;;;;;;;;;;;;4.59;50.40;100374.75;5026547;28;19917;-89
2022/03/10 12:42:31;;;;;;;;;;;;;;;4.61;48.12;100368.69;5026013;28;20035;-88
2022/03/10 12:44:57;;;;;;;;;;;;;;;4.56;50.19;100369.47;5027033;28;19921;-88
2022/03/10 12:47:23;;;;;;;;;;;;;;;4.81;50.93;100376.91;5027170;28;20486;-87
2022/03/10 12:49:50;;;;;;;;;;;;;;;4.98;50.32;100371.13;5026542;28;19917;-87
2022/03/10 12:52:17;;;;;;;;;;;;;;;4.60;49.82;100373.88;5027214;28;19975;-86
2022/03/10 12:54:44;;;;;;;;;;;;;;;4.65;50.24;100372.25;5026416;28;19974;-88
2022/03/10 12:57:10;;;;;;;;;;;;;;;4.79;51.40;100385.59;5027427;28;20011;-88
2022/03/10 12:59:42;;;;;;;;;;;;;;;4.85;49.70;100393.56;5026069;28;19975;-87
2022/03/10 13:02:14;;;;;;;;;;;;;;;3.76;51.01;100406.00;5026859;28;20007;-86
2022/03/10 13:04:48;;;;;;;;;;;;;;;3.76;50.89;100405.13;5027062;28;19920;-86
2022/03/10 13:07:16;;;;;;;;;;;;;;;2.90;54.66;100416.84;5008747;28;20381;-86
2022/03/10 13:09:49;;;;;;;;;;;;;;;2.65;56.90;100410.06;5026969;28;19917;-86
2022/03/10 13:12:22;;;;;;;;;;;;;;;2.63;55.49;100410.03;5008547;28;20472;-88
2022/03/10 13:14:47;;;;;;;;;;;;;;;2.15;55.31;100413.81;5027092;28;19932;-86
2022/03/10 13:17:13;;;;;;;;;;;;;;;2.62;55.54;100413.44;5026286;28;19994;-85
2022/03/10 13:19:41;;;;;;;;;;;;;;;2.97;54.19;100408.34;5009221;28;20649;-86
2022/03/10 13:22:06;;;;;;;;;;;;;;;2.78;55.95;100412.19;5026571;28;19963;-87
2022/03/10 13:24:35;;;;;;;;;;;;;;;2.78;57.85;100390.44;5026424;28;20450;-86
2022/03/10 13:27:04;;;;;;;;;;;;;;;3.05;57.94;100388.56;5027032;28;19920;-85
2022/03/10 13:29:29;;;;;;;;;;;;;;;3.28;55.81;100388.31;5029745;28;19920;-86
2022/03/10 13:31:55;;;;;;;;;;;;;;;2.97;55.90;100384.91;5030802;28;19917;-85
2022/03/10 13:34:23;;;;;;;;;;;;;;;3.08;57.56;100390.41;5030856;28;19921;-86
2022/03/10 13:36:49;;;;;;;;;;;;;;;2.96;59.95;100396.16;5029848;28;19956;-88
2022/03/10 13:39:14;;;;;;;;;;;;;;;2.44;63.88;100400.81;5022272;28;20042;-86
2022/03/10 13:41:42;;;;;;;;;;;;;;;2.49;65.17;100404.41;5030392;28;19923;-86
2022/03/10 13:44:15;;;;;;;;;;;;;;;2.56;64.39;100404.59;5012399;28;19928;-86